sensor_id;sensor_type;location;lat;lon;timestamp;pressure;altitude;pressure_sealevel;temperature;humidity
9035;BME280;4552;43.422;24.592;2023-03-13T00:02:06;100384.06;;;2.92;72.62
9035;BME280;4552;43.422;24.592;2023-03-13T00:04:33;100386.34;;;2.81;73.76
9035;BME280;4552;43.422;24.592;2023-03-13T00:07:00;100381.31;;;2.86;72.88
9035;BME280;4552;43.422;24.592;2023-03-13T00:09:27;100378.88;;;2.92;72.16
9035;BME280;4552;43.422;24.592;2023-03-13T00:11:55;100385.59;;;2.84;71.74
9035;BME280;4552;43.422;24.592;2023-03-13T00:14:22;100396.66;;;2.80;72.63
9035;BME280;4552;43.422;24.592;2023-03-13T03:41:30;100530.41;;;0.92;84.49
9035;BME280;4552;43.422;24.592;2023-03-13T03:43:57;100528.69;;;0.91;84.65
9035;BME280;4552;43.422;24.592;2023-03-13T03:46:24;100539.88;;;0.91;85.58
9035;BME280;4552;43.422;24.592;2023-03-13T03:48:51;100541.41;;;0.86;85.75
9035;BME280;4552;43.422;24.592;2023-03-13T03:51:19;100547.53;;;0.90;85.88
9035;BME280;4552;43.422;24.592;2023-03-13T03:53:46;100550.22;;;0.93;86.13
9035;BME280;4552;43.422;24.592;2023-03-13T03:56:13;100557.84;;;0.90;85.85
9035;BME280;4552;43.422;24.592;2023-03-13T03:58:41;100554.53;;;0.94;85.92
9035;BME280;4552;43.422;24.592;2023-03-13T04:01:08;100577.66;;;1.16;84.85
9035;BME280;4552;43.422;24.592;2023-03-13T04:03:35;100579.41;;;1.17;84.32
9035;BME280;4552;43.422;24.592;2023-03-13T04:06:02;100584.53;;;0.92;84.82
9035;BME280;4552;43.422;24.592;2023-03-13T04:08:31;100575.72;;;0.85;85.41
9035;BME280;4552;43.422;24.592;2023-03-13T04:10:59;100585.03;;;0.82;85.48
9035;BME280;4552;43.422;24.592;2023-03-13T04:13:26;100589.19;;;0.78;85.79
9035;BME280;4552;43.422;24.592;2023-03-13T04:15:54;100588.91;;;0.71;85.84
9035;BME280;4552;43.422;24.592;2023-03-13T04:18:21;100605.72;;;0.61;85.84
9035;BME280;4552;43.422;24.592;2023-03-13T04:20:48;100613.00;;;0.71;86.30
9035;BME280;4552;43.422;24.592;2023-03-13T04:23:15;100624.06;;;0.69;85.72
9035;BME280;4552;43.422;24.592;2023-03-13T04:25:42;100621.31;;;0.88;85.97
9035;BME280;4552;43.422;24.592;2023-03-13T04:28:09;100625.25;;;0.55;86.09
9035;BME280;4552;43.422;24.592;2023-03-13T04:30:36;100617.81;;;0.62;86.73
9035;BME280;4552;43.422;24.592;2023-03-13T04:33:05;100625.66;;;0.43;85.06
9035;BME280;4552;43.422;24.592;2023-03-13T04:35:32;100642.28;;;0.29;85.38
9035;BME280;4552;43.422;24.592;2023-03-13T04:37:59;100641.88;;;0.19;86.53
9035;BME280;4552;43.422;24.592;2023-03-13T06:25:04;100671.59;;;4.14;72.97
9035;BME280;4552;43.422;24.592;2023-03-13T06:27:31;100675.72;;;4.41;70.84
9035;BME280;4552;43.422;24.592;2023-03-13T06:29:58;100675.09;;;4.53;70.36
9035;BME280;4552;43.422;24.592;2023-03-13T06:32:26;100679.72;;;4.66;69.89
9035;BME280;4552;43.422;24.592;2023-03-13T06:34:53;100680.31;;;4.94;69.10
9035;BME280;4552;43.422;24.592;2023-03-13T07:17:45;100685.09;;;6.10;61.09
9035;BME280;4552;43.422;24.592;2023-03-13T07:20:12;100680.56;;;5.96;60.73
9035;BME280;4552;43.422;24.592;2023-03-13T08:27:51;100676.25;;;8.02;51.16
9035;BME280;4552;43.422;24.592;2023-03-13T08:30:19;100685.84;;;8.09;51.59
9035;BME280;4552;43.422;24.592;2023-03-13T08:32:46;100690.22;;;8.13;51.35
9035;BME280;4552;43.422;24.592;2023-03-13T08:35:16;100676.47;;;8.26;50.66
9035;BME280;4552;43.422;24.592;2023-03-13T08:37:46;100659.81;;;8.14;51.07
9035;BME280;4552;43.422;24.592;2023-03-13T08:40:16;100663.59;;;8.55;50.63
9035;BME280;4552;43.422;24.592;2023-03-13T08:42:44;100664.56;;;8.72;50.14
9035;BME280;4552;43.422;24.592;2023-03-13T08:45:13;100659.34;;;8.72;50.31
9035;BME280;4552;43.422;24.592;2023-03-13T08:47:40;100667.22;;;8.81;50.34
9035;BME280;4552;43.422;24.592;2023-03-13T08:50:08;100652.38;;;8.68;49.93
9035;BME280;4552;43.422;24.592;2023-03-13T08:52:35;100641.03;;;8.58;50.58
9035;BME280;4552;43.422;24.592;2023-03-13T08:55:05;100654.06;;;8.58;50.03
9035;BME280;4552;43.422;24.592;2023-03-13T08:57:32;100662.09;;;9.05;49.71
9035;BME280;4552;43.422;24.592;2023-03-13T08:59:59;100654.28;;;9.10;49.40
9035;BME280;4552;43.422;24.592;2023-03-13T09:02:28;100648.09;;;8.82;49.08
9035;BME280;4552;43.422;24.592;2023-03-13T09:04:55;100654.19;;;8.81;49.11
9035;BME280;4552;43.422;24.592;2023-03-13T09:07:23;100655.75;;;8.53;49.88
9035;BME280;4552;43.422;24.592;2023-03-13T09:16:20;100643.88;;;9.17;48.83
9035;BME280;4552;43.422;24.592;2023-03-13T09:18:55;100647.34;;;9.10;48.23
9035;BME280;4552;43.422;24.592;2023-03-13T09:21:24;100654.19;;;8.81;48.39
9035;BME280;4552;43.422;24.592;2023-03-13T09:37:20;100632.59;;;9.24;47.88
9035;BME280;4552;43.422;24.592;2023-03-13T09:46:36;100646.59;;;9.53;47.42
9035;BME280;4552;43.422;24.592;2023-03-13T09:49:11;100635.25;;;9.44;47.00
9035;BME280;4552;43.422;24.592;2023-03-13T09:51:41;100627.44;;;9.87;46.08
9035;BME280;4552;43.422;24.592;2023-03-13T10:07:39;100610.03;;;10.07;45.01
9035;BME280;4552;43.422;24.592;2023-03-13T10:10:12;100618.75;;;9.97;45.56
9035;BME280;4552;43.422;24.592;2023-03-13T10:12:44;100593.44;;;9.84;45.26
9035;BME280;4552;43.422;24.592;2023-03-13T10:15:31;100600.44;;;9.93;45.52
9035;BME280;4552;43.422;24.592;2023-03-13T10:18:11;100588.22;;;9.84;45.55
9035;BME280;4552;43.422;24.592;2023-03-13T10:20:41;100583.00;;;9.96;45.16
9035;BME280;4552;43.422;24.592;2023-03-13T10:23:15;100591.69;;;10.06;45.09
9035;BME280;4552;43.422;24.592;2023-03-13T10:45:58;100526.63;;;11.31;41.76
9035;BME280;4552;43.422;24.592;2023-03-13T10:48:29;100526.66;;;11.27;41.54
9035;BME280;4552;43.422;24.592;2023-03-13T10:51:02;100531.31;;;10.83;42.26
9035;BME280;4552;43.422;24.592;2023-03-13T10:53:32;100528.53;;;11.07;42.22
9035;BME280;4552;43.422;24.592;2023-03-13T11:22:31;100477.38;;;11.71;40.34
9035;BME280;4552;43.422;24.592;2023-03-13T11:31:50;100476.19;;;12.03;40.50
9035;BME280;4552;43.422;24.592;2023-03-13T11:34:21;100467.19;;;12.26;39.62
9035;BME280;4552;43.422;24.592;2023-03-13T11:36:58;100451.38;;;12.30;40.44
9035;BME280;4552;43.422;24.592;2023-03-13T11:39:49;100446.78;;;12.46;39.35
9035;BME280;4552;43.422;24.592;2023-03-13T11:45:27;100458.06;;;12.54;40.47
9035;BME280;4552;43.422;24.592;2023-03-13T11:48:03;100445.97;;;12.42;39.12
9035;BME280;4552;43.422;24.592;2023-03-13T11:50:36;100424.91;;;12.47;38.78
9035;BME280;4552;43.422;24.592;2023-03-13T11:53:24;100431.03;;;12.44;38.89
9035;BME280;4552;43.422;24.592;2023-03-13T12:33:02;100379.97;;;12.68;37.93
9035;BME280;4552;43.422;24.592;2023-03-13T12:35:31;100362.38;;;12.73;37.92
9035;BME280;4552;43.422;24.592;2023-03-13T12:38:02;100369.84;;;12.98;37.85
9035;BME280;4552;43.422;24.592;2023-03-13T12:40:34;100361.66;;;13.16;37.64
9035;BME280;4552;43.422;24.592;2023-03-13T12:43:09;100359.19;;;13.07;37.09
9035;BME280;4552;43.422;24.592;2023-03-13T12:45:50;100368.31;;;12.82;37.68
9035;BME280;4552;43.422;24.592;2023-03-13T12:48:49;100361.69;;;13.15;37.76
9035;BME280;4552;43.422;24.592;2023-03-13T12:51:32;100366.16;;;13.58;37.09
9035;BME280;4552;43.422;24.592;2023-03-13T13:03:51;100378.78;;;12.88;38.03
9035;BME280;4552;43.422;24.592;2023-03-13T13:06:18;100382.81;;;13.09;37.72
9035;BME280;4552;43.422;24.592;2023-03-13T13:09:06;100342.75;;;12.93;37.00
9035;BME280;4552;43.422;24.592;2023-03-13T13:11:55;100362.84;;;12.97;37.16
9035;BME280;4552;43.422;24.592;2023-03-13T13:15:00;100357.16;;;13.24;37.05
9035;BME280;4552;43.422;24.592;2023-03-13T13:17:44;100356.06;;;13.34;36.40
9035;BME280;4552;43.422;24.592;2023-03-13T13:20:33;100341.97;;;13.40;36.91
9035;BME280;4552;43.422;24.592;2023-03-13T13:23:23;100330.34;;;13.51;35.70
9035;BME280;4552;43.422;24.592;2023-03-13T13:36:27;100350.13;;;13.26;36.34
9035;BME280;4552;43.422;24.592;2023-03-13T13:38:57;100350.91;;;13.30;36.67
9035;BME280;4552;43.422;24.592;2023-03-13T14:47:39;100321.41;;;13.13;35.94
9035;BME280;4552;43.422;24.592;2023-03-13T14:50:12;100314.28;;;13.21;36.05
9035;BME280;4552;43.422;24.592;2023-03-13T14:52:44;100304.78;;;13.14;36.11
9035;BME280;4552;43.422;24.592;2023-03-13T15:05:33;100311.25;;;13.40;35.59
9035;BME280;4552;43.422;24.592;2023-03-13T15:08:11;100291.19;;;13.36;35.53
9035;BME280;4552;43.422;24.592;2023-03-13T15:51:36;100330.72;;;12.80;37.38
9035;BME280;4552;43.422;24.592;2023-03-13T15:54:03;100343.84;;;12.82;38.30
9035;BME280;4552;43.422;24.592;2023-03-13T15:56:35;100319.38;;;12.78;37.49
9035;BME280;4552;43.422;24.592;2023-03-13T15:59:09;100322.69;;;12.89;37.42
9035;BME280;4552;43.422;24.592;2023-03-13T16:01:37;100327.56;;;12.59;37.78
9035;BME280;4552;43.422;24.592;2023-03-13T16:04:04;100332.00;;;12.55;38.09
9035;BME280;4552;43.422;24.592;2023-03-13T16:06:32;100331.91;;;12.61;37.83
9035;BME280;4552;43.422;24.592;2023-03-13T16:09:03;100337.91;;;12.69;37.87
9035;BME280;4552;43.422;24.592;2023-03-13T16:11:31;100335.72;;;12.42;38.53
9035;BME280;4552;43.422;24.592;2023-03-13T16:13:58;100338.16;;;12.53;38.48
9035;BME280;4552;43.422;24.592;2023-03-13T16:16:27;100338.31;;;12.44;38.42
9035;BME280;4552;43.422;24.592;2023-03-13T16:18:57;100338.31;;;12.44;38.61
9035;BME280;4552;43.422;24.592;2023-03-13T16:21:25;100330.41;;;12.45;38.57
9035;BME280;4552;43.422;24.592;2023-03-13T16:23:53;100329.78;;;12.28;38.63
9035;BME280;4552;43.422;24.592;2023-03-13T16:26:23;100318.44;;;12.26;38.63
9035;BME280;4552;43.422;24.592;2023-03-13T16:29:03;100335.81;;;12.36;39.07
9035;BME280;4552;43.422;24.592;2023-03-13T16:31:32;100336.03;;;12.21;39.14
9035;BME280;4552;43.422;24.592;2023-03-13T16:34:00;100332.69;;;12.10;39.17
9035;BME280;4552;43.422;24.592;2023-03-13T16:36:30;100345.91;;;12.01;40.01
9035;BME280;4552;43.422;24.592;2023-03-13T16:38:58;100340.59;;;12.05;39.85
9035;BME280;4552;43.422;24.592;2023-03-13T16:55:05;100350.75;;;11.61;41.25
9035;BME280;4552;43.422;24.592;2023-03-13T16:57:32;100353.50;;;11.46;41.26
9035;BME280;4552;43.422;24.592;2023-03-13T16:59:59;100357.00;;;11.47;41.05
9035;BME280;4552;43.422;24.592;2023-03-13T17:02:26;100347.69;;;11.16;42.87
9035;BME280;4552;43.422;24.592;2023-03-13T17:04:54;100372.25;;;11.06;41.78
9035;BME280;4552;43.422;24.592;2023-03-13T17:07:23;100370.66;;;10.87;43.72
9035;BME280;4552;43.422;24.592;2023-03-13T17:09:51;100370.84;;;10.63;44.59
9035;BME280;4552;43.422;24.592;2023-03-13T17:12:20;100356.19;;;10.39;44.49
9035;BME280;4552;43.422;24.592;2023-03-13T17:14:47;100360.59;;;10.32;46.10
9035;BME280;4552;43.422;24.592;2023-03-13T17:17:17;100362.41;;;10.18;44.89
9035;BME280;4552;43.422;24.592;2023-03-13T17:19:48;100338.94;;;10.08;45.67
9035;BME280;4552;43.422;24.592;2023-03-13T17:22:16;100346.84;;;9.85;46.87
9035;BME280;4552;43.422;24.592;2023-03-13T17:24:43;100346.88;;;9.79;46.67
9035;BME280;4552;43.422;24.592;2023-03-13T17:27:11;100329.59;;;9.41;47.36
9035;BME280;4552;43.422;24.592;2023-03-13T17:29:41;100324.34;;;9.45;48.73
9035;BME280;4552;43.422;24.592;2023-03-13T17:32:09;100319.16;;;9.36;47.51
9035;BME280;4552;43.422;24.592;2023-03-13T17:34:37;100324.41;;;9.27;48.36
9035;BME280;4552;43.422;24.592;2023-03-13T17:37:11;100319.16;;;9.30;48.78
9035;BME280;4552;43.422;24.592;2023-03-13T17:39:40;100312.19;;;9.26;48.85
9035;BME280;4552;43.422;24.592;2023-03-13T17:48:54;100349.69;;;9.01;49.57
9035;BME280;4552;43.422;24.592;2023-03-13T17:51:23;100324.44;;;8.77;49.61
9035;BME280;4552;43.422;24.592;2023-03-13T17:53:53;100341.00;;;8.81;49.92
9035;BME280;4552;43.422;24.592;2023-03-13T18:20:03;100299.09;;;7.89;54.29
9035;BME280;4552;43.422;24.592;2023-03-13T18:22:35;100308.66;;;7.87;54.06
9035;BME280;4552;43.422;24.592;2023-03-13T18:25:02;100307.78;;;7.82;54.73
9035;BME280;4552;43.422;24.592;2023-03-13T18:27:29;100312.09;;;7.79;55.52
9035;BME280;4552;43.422;24.592;2023-03-13T18:29:56;100308.63;;;7.86;53.56
9035;BME280;4552;43.422;24.592;2023-03-13T18:32:23;100317.31;;;7.74;55.02
9035;BME280;4552;43.422;24.592;2023-03-13T18:34:51;100322.47;;;7.64;55.98
9035;BME280;4552;43.422;24.592;2023-03-13T18:37:27;100313.72;;;7.53;54.81
9035;BME280;4552;43.422;24.592;2023-03-13T18:39:55;100313.75;;;7.59;55.15
9035;BME280;4552;43.422;24.592;2023-03-13T18:42:23;100322.47;;;7.61;55.44
9035;BME280;4552;43.422;24.592;2023-03-13T18:44:50;100331.97;;;7.56;54.93
9035;BME280;4552;43.422;24.592;2023-03-13T18:47:19;100334.56;;;7.50;55.58
9035;BME280;4552;43.422;24.592;2023-03-13T18:49:47;100336.25;;;7.45;55.23
9035;BME280;4552;43.422;24.592;2023-03-13T18:52:15;100327.47;;;7.28;57.33
9035;BME280;4552;43.422;24.592;2023-03-13T18:54:44;100336.19;;;7.30;56.81
9035;BME280;4552;43.422;24.592;2023-03-13T19:10:42;100351.44;;;6.75;57.86
9035;BME280;4552;43.422;24.592;2023-03-13T19:36:00;100338.09;;;6.41;61.18
9035;BME280;4552;43.422;24.592;2023-03-13T19:38:27;100342.34;;;6.31;62.17
9035;BME280;4552;43.422;24.592;2023-03-13T19:40:54;100330.00;;;6.09;62.87
9035;BME280;4552;43.422;24.592;2023-03-13T19:43:21;100340.50;;;6.21;62.38
9035;BME280;4552;43.422;24.592;2023-03-13T19:45:48;100338.75;;;6.17;62.46
9035;BME280;4552;43.422;24.592;2023-03-13T19:48:15;100330.81;;;6.05;63.58
9035;BME280;4552;43.422;24.592;2023-03-13T19:50:43;100317.72;;;5.98;63.39
9035;BME280;4552;43.422;24.592;2023-03-13T19:53:11;100310.88;;;6.04;63.12
9035;BME280;4552;43.422;24.592;2023-03-13T19:55:38;100315.13;;;5.98;63.57
9035;BME280;4552;43.422;24.592;2023-03-13T19:58:05;100319.47;;;5.96;63.61
9035;BME280;4552;43.422;24.592;2023-03-13T20:00:33;100324.66;;;5.94;64.14
9035;BME280;4552;43.422;24.592;2023-03-13T20:03:01;100319.47;;;5.97;63.93
9035;BME280;4552;43.422;24.592;2023-03-13T20:05:28;100319.38;;;5.88;64.72
9035;BME280;4552;43.422;24.592;2023-03-13T20:07:57;100315.78;;;5.80;65.43
9035;BME280;4552;43.422;24.592;2023-03-13T20:10:25;100316.56;;;5.75;65.98
9035;BME280;4552;43.422;24.592;2023-03-13T21:24:52;100245.50;;;4.95;66.69
9035;BME280;4552;43.422;24.592;2023-03-13T21:27:19;100232.31;;;4.80;68.66
9035;BME280;4552;43.422;24.592;2023-03-13T21:29:46;100244.59;;;4.91;66.56
9035;BME280;4552;43.422;24.592;2023-03-13T21:32:15;100237.59;;;4.86;67.40
9035;BME280;4552;43.422;24.592;2023-03-13T21:34:44;100239.38;;;4.90;67.47
9035;BME280;4552;43.422;24.592;2023-03-13T21:37:11;100221.91;;;4.78;66.82
9035;BME280;4552;43.422;24.592;2023-03-13T21:39:38;100226.34;;;4.84;65.96
9035;BME280;4552;43.422;24.592;2023-03-13T21:42:09;100220.41;;;4.94;67.05
9035;BME280;4552;43.422;24.592;2023-03-13T21:44:37;100216.03;;;4.90;66.30
9035;BME280;4552;43.422;24.592;2023-03-13T21:47:04;100215.16;;;4.89;65.92
9035;BME280;4552;43.422;24.592;2023-03-13T21:49:34;100204.72;;;4.83;66.82
9035;BME280;4552;43.422;24.592;2023-03-13T21:52:01;100197.78;;;4.81;67.21
9035;BME280;4552;43.422;24.592;2023-03-13T21:54:28;100196.16;;;4.89;66.92
9035;BME280;4552;43.422;24.592;2023-03-13T22:03:40;100189.97;;;4.78;67.82
9035;BME280;4552;43.422;24.592;2023-03-13T22:06:11;100188.19;;;4.77;66.73
9035;BME280;4552;43.422;24.592;2023-03-13T22:08:39;100190.81;;;4.80;67.16
9035;BME280;4552;43.422;24.592;2023-03-13T22:11:06;100194.19;;;4.73;66.81
9035;BME280;4552;43.422;24.592;2023-03-13T22:17:16;100194.78;;;4.51;68.15
9035;BME280;4552;43.422;24.592;2023-03-13T22:19:45;100183.38;;;4.40;67.68
9035;BME280;4552;43.422;24.592;2023-03-13T22:22:13;100181.59;;;4.39;68.02
9035;BME280;4552;43.422;24.592;2023-03-13T22:24:40;100184.25;;;4.43;67.87
9035;BME280;4552;43.422;24.592;2023-03-13T22:27:07;100179.25;;;4.52;66.27
9035;BME280;4552;43.422;24.592;2023-03-13T22:29:35;100184.03;;;4.27;67.38
9035;BME280;4552;43.422;24.592;2023-03-13T22:32:02;100178.50;;;4.06;67.32
9035;BME280;4552;43.422;24.592;2023-03-13T22:34:29;100173.72;;;3.78;68.34
9035;BME280;4552;43.422;24.592;2023-03-13T22:36:58;100186.44;;;3.66;68.65
9035;BME280;4552;43.422;24.592;2023-03-13T22:39:25;100174.69;;;3.83;67.92
9035;BME280;4552;43.422;24.592;2023-03-13T22:41:52;100180.84;;;3.91;68.13
9035;BME280;4552;43.422;24.592;2023-03-13T23:21:21;100169.63;;;3.42;68.98
9035;BME280;4552;43.422;24.592;2023-03-13T23:23:48;100164.47;;;3.42;69.07
9035;BME280;4552;43.422;24.592;2023-03-13T23:26:15;100167.34;;;3.58;69.39
9035;BME280;4552;43.422;24.592;2023-03-13T23:28:42;100159.44;;;3.51;69.43
9035;BME280;4552;43.422;24.592;2023-03-13T23:31:11;100156.69;;;3.42;70.25
9035;BME280;4552;43.422;24.592;2023-03-13T23:33:38;100155.91;;;3.45;70.60
9035;BME280;4552;43.422;24.592;2023-03-13T23:36:06;100160.16;;;3.41;70.16
9035;BME280;4552;43.422;24.592;2023-03-13T23:38:35;100153.88;;;3.29;70.39
9035;BME280;4552;43.422;24.592;2023-03-13T23:41:06;100147.66;;;3.19;70.54
9035;BME280;4552;43.422;24.592;2023-03-13T23:54:41;100140.44;;;3.02;73.00
9035;BME280;4552;43.422;24.592;2023-03-13T23:57:07;100129.94;;;2.94;73.39
9035;BME280;4552;43.422;24.592;2023-03-13T23:59:34;100123.03;;;2.93;73.72
